createdAt,value
2022-10-04T00:03:47.517Z,11.93
2022-10-04T00:09:05.189Z,9.00
2022-10-04T00:14:31.109Z,14.50
2022-10-04T00:19:42.885Z,12.25
2022-10-04T00:25:08.446Z,17.75
2022-10-04T00:30:37.590Z,11.23
2022-10-04T00:35:40.207Z,10.82
2022-10-04T00:40:56.572Z,12.25
2022-10-04T00:46:10.549Z,8.82
2022-10-04T00:51:38.150Z,8.23
2022-10-04T00:56:45.422Z,16.15
2022-10-04T01:01:55.391Z,11.68
2022-10-04T01:07:02.327Z,11.10
2022-10-04T01:12:17.093Z,13.38
2022-10-04T01:17:26.410Z,11.55
2022-10-04T01:22:43.135Z,14.07
2022-10-04T01:27:44.950Z,12.27
2022-10-04T01:32:54.662Z,13.30
2022-10-04T01:37:56.367Z,20.15
2022-10-04T01:43:05.371Z,11.98
2022-10-04T01:48:15.525Z,13.07
2022-10-04T01:53:29.107Z,14.95
2022-10-04T01:58:45.857Z,13.15
2022-10-04T02:04:33.573Z,14.98
2022-10-04T02:09:43.717Z,14.95
2022-10-04T02:14:53.234Z,16.67
2022-10-04T02:19:59.021Z,13.50
2022-10-04T02:25:06.142Z,14.52
2022-10-04T02:30:12.493Z,15.60
2022-10-04T02:35:14.352Z,16.30
2022-10-04T02:40:23.288Z,13.52
2022-10-04T02:45:29.589Z,14.27
2022-10-04T02:50:37.637Z,16.02
2022-10-04T02:55:42.687Z,14.68
2022-10-04T03:00:55.299Z,18.95
2022-10-04T03:06:05.897Z,16.27
2022-10-04T03:11:08.310Z,14.05
2022-10-04T03:16:12.454Z,12.23
2022-10-04T03:21:16.445Z,11.98
2022-10-04T03:26:46.551Z,15.05
2022-10-04T03:31:53.258Z,15.40
2022-10-04T03:36:59.151Z,23.42
2022-10-04T03:42:19.239Z,18.77
2022-10-04T03:47:25.441Z,17.88
2022-10-04T03:52:33.211Z,16.25
2022-10-04T03:57:35.369Z,20.35
2022-10-04T04:02:45.982Z,23.95
2022-10-04T04:08:14.736Z,18.98
2022-10-04T04:13:31.585Z,25.40
2022-10-04T04:18:37.858Z,27.23
2022-10-04T04:23:50.382Z,23.17
2022-10-04T04:28:58.377Z,25.37
2022-10-04T04:34:12.391Z,23.80
2022-10-04T04:39:37.375Z,31.90
2022-10-04T04:44:57.313Z,26.25
2022-10-04T04:50:07.675Z,31.73
2022-10-04T04:55:27.413Z,30.77
2022-10-04T05:00:31.894Z,21.95
2022-10-04T05:05:34.814Z,31.85
2022-10-04T05:10:58.610Z,30.35
2022-10-04T05:16:01.111Z,33.50
2022-10-04T05:21:12.017Z,32.23
2022-10-04T05:26:16.601Z,31.77
2022-10-04T05:31:42.124Z,28.92
2022-10-04T05:37:08.271Z,26.27
2022-10-04T05:42:26.933Z,35.55
2022-10-04T05:47:36.893Z,30.50
2022-10-04T05:52:40.932Z,27.70
2022-10-04T05:58:09.068Z,27.20
2022-10-04T06:03:21.451Z,30.38
2022-10-04T06:08:44.817Z,31.67
2022-10-04T06:14:18.756Z,31.17
2022-10-04T06:19:32.420Z,29.17
2022-10-04T06:24:38.802Z,25.63
2022-10-04T06:30:12.265Z,26.15
2022-10-04T06:35:48.559Z,27.85
2022-10-04T06:40:54.238Z,24.42
2022-10-04T06:46:02.978Z,27.55
2022-10-04T06:51:33.733Z,19.58
2022-10-04T06:57:08.400Z,30.02
2022-10-04T07:02:19.269Z,19.00
2022-10-04T07:07:37.003Z,20.98
2022-10-04T07:12:45.226Z,20.63
2022-10-04T07:17:50.315Z,23.42
2022-10-04T07:22:59.609Z,17.58
2022-10-04T07:28:33.530Z,17.27
2022-10-04T07:33:46.785Z,23.75
2022-10-04T07:38:58.343Z,22.48
2022-10-04T07:44:07.160Z,25.40
2022-10-04T07:49:16.525Z,25.77
2022-10-04T07:54:40.597Z,20.90
2022-10-04T07:59:52.791Z,18.63
2022-10-04T08:05:07.814Z,20.60
2022-10-04T08:10:27.486Z,19.17
2022-10-04T08:15:38.955Z,19.63
2022-10-04T08:21:06.972Z,19.02
2022-10-04T08:26:27.569Z,18.45
2022-10-04T08:31:39.452Z,16.88
2022-10-04T08:36:52.013Z,16.45
2022-10-04T08:42:22.663Z,18.45
2022-10-04T08:47:58.925Z,23.20
2022-10-04T08:53:22.790Z,19.23
2022-10-04T08:58:49.807Z,16.95
2022-10-04T09:04:11.191Z,12.93
2022-10-04T09:09:44.638Z,12.73
2022-10-04T09:14:50.118Z,13.80
2022-10-04T09:20:37.744Z,12.63
2022-10-04T09:25:53.417Z,14.43
2022-10-04T09:31:27.865Z,13.43
2022-10-04T09:36:58.316Z,11.88
2022-10-04T09:42:15.411Z,13.38
2022-10-04T09:47:45.320Z,10.98
2022-10-04T09:53:11.150Z,13.30
2022-10-04T09:58:29.614Z,12.88
2022-10-04T10:03:44.129Z,13.05
2022-10-04T10:08:58.829Z,11.48
2022-10-04T10:14:28.282Z,10.57
2022-10-04T10:19:44.367Z,10.15
2022-10-04T10:25:13.323Z,9.75
2022-10-04T10:30:39.868Z,11.75
2022-10-04T10:36:06.990Z,9.27
2022-10-04T10:41:26.136Z,11.50
2022-10-04T10:47:11.905Z,9.13
2022-10-04T10:52:51.782Z,9.65
2022-10-04T10:58:14.425Z,8.55
2022-10-04T11:03:52.740Z,11.02
2022-10-04T11:09:23.693Z,9.07
2022-10-04T11:14:50.174Z,16.75
2022-10-04T11:20:35.125Z,11.60
2022-10-04T11:25:57.288Z,9.95
2022-10-04T11:30:58.921Z,7.65
2022-10-04T11:36:17.915Z,6.20
2022-10-04T11:41:50.315Z,9.02
2022-10-04T11:47:12.761Z,10.13
2022-10-04T11:52:40.483Z,8.23
2022-10-04T11:57:55.205Z,8.10
2022-10-04T12:03:09.404Z,7.07
2022-10-04T12:08:49.212Z,8.45
2022-10-04T12:13:57.799Z,10.38
2022-10-04T12:19:07.587Z,5.00
2022-10-04T12:24:41.265Z,10.30
2022-10-04T12:30:00.266Z,8.88
2022-10-04T12:35:14.153Z,6.82
2022-10-04T12:40:24.434Z,6.38
2022-10-04T12:45:52.732Z,13.88
2022-10-04T12:51:02.901Z,7.47
2022-10-04T12:56:11.635Z,6.35
2022-10-04T13:01:45.847Z,5.10
2022-10-04T13:06:59.455Z,17.13
2022-10-04T13:12:22.824Z,6.65
2022-10-04T13:17:36.156Z,7.40
2022-10-04T13:23:28.993Z,7.90
2022-10-04T13:28:44.036Z,6.20
2022-10-04T13:34:14.468Z,7.07
2022-10-04T13:39:42.930Z,7.35
2022-10-04T13:45:02.572Z,8.15
2022-10-04T13:50:31.971Z,7.47
2022-10-04T13:56:22.918Z,4.47
2022-10-04T14:01:50.782Z,9.50
2022-10-04T14:07:11.734Z,7.53
2022-10-04T14:12:33.962Z,6.65
2022-10-04T14:18:02.534Z,5.90
2022-10-04T14:23:10.532Z,7.13
2022-10-04T14:28:27.454Z,7.60
2022-10-04T14:33:32.223Z,8.98
2022-10-04T14:38:42.732Z,6.57
2022-10-04T14:44:03.228Z,7.57
2022-10-04T14:49:30.941Z,5.50
2022-10-04T14:54:56.647Z,7.72
2022-10-04T15:00:19.232Z,8.13
2022-10-04T15:05:36.099Z,5.90
2022-10-04T15:10:51.024Z,7.38
2022-10-04T15:16:18.716Z,8.43
2022-10-04T15:21:46.773Z,6.65
2022-10-04T15:27:18.919Z,5.57
2022-10-04T15:32:24.353Z,8.48
2022-10-04T15:37:57.143Z,9.52
2022-10-04T15:43:23.611Z,7.60
2022-10-04T15:48:33.048Z,5.75
2022-10-04T15:53:55.955Z,8.45
2022-10-04T15:59:20.366Z,7.78
2022-10-04T16:04:25.909Z,9.98
2022-10-04T16:09:53.902Z,5.97
2022-10-04T16:15:24.571Z,6.55
2022-10-04T16:21:00.708Z,6.95
2022-10-04T16:26:19.917Z,7.72
2022-10-04T16:31:45.909Z,8.43
2022-10-04T16:37:12.242Z,7.88
2022-10-04T16:42:18.727Z,9.40
2022-10-04T16:47:31.953Z,8.20
2022-10-04T16:53:02.579Z,7.30
2022-10-04T16:58:26.837Z,6.93
2022-10-04T17:03:36.040Z,6.88
2022-10-04T17:08:49.955Z,9.43
2022-10-04T17:14:02.379Z,8.27
2022-10-04T17:19:33.951Z,13.13
2022-10-04T17:25:12.551Z,16.10
2022-10-04T17:30:22.223Z,12.60
2022-10-04T17:35:56.498Z,10.68
2022-10-04T17:41:35.358Z,10.05
2022-10-04T17:47:14.256Z,10.60
2022-10-04T17:52:43.047Z,10.40
2022-10-04T17:57:53.750Z,12.27
2022-10-04T18:03:12.593Z,12.07
2022-10-04T18:08:48.933Z,8.68
2022-10-04T18:14:03.945Z,10.68
2022-10-04T18:19:51.140Z,11.38
2022-10-04T18:25:31.290Z,11.50
2022-10-04T18:31:00.515Z,9.93
2022-10-04T18:36:10.366Z,10.52
2022-10-04T18:41:23.355Z,11.02
2022-10-04T18:46:26.154Z,9.73
2022-10-04T18:51:43.920Z,11.55
2022-10-04T18:56:52.013Z,11.35
2022-10-04T19:02:08.433Z,13.48
2022-10-04T19:07:15.750Z,10.63
2022-10-04T19:12:49.158Z,11.20
2022-10-04T19:18:12.064Z,14.73
2022-10-04T19:23:33.680Z,11.95
2022-10-04T19:28:38.048Z,13.55
2022-10-04T19:33:39.993Z,15.27
2022-10-04T19:38:53.514Z,11.88
2022-10-04T19:44:16.342Z,10.95
2022-10-04T19:49:41.640Z,15.70
2022-10-04T19:54:47.765Z,9.68
2022-10-04T19:59:52.905Z,11.63
2022-10-04T20:04:56.349Z,10.60
2022-10-04T20:10:28.493Z,11.70
2022-10-04T20:15:34.816Z,13.25
2022-10-04T20:20:39.662Z,11.85
2022-10-04T20:25:44.612Z,9.25
2022-10-04T20:30:52.260Z,10.70
2022-10-04T20:36:02.088Z,14.25
2022-10-04T20:41:05.377Z,13.57
2022-10-04T20:46:22.184Z,14.00
2022-10-04T20:51:30.142Z,10.68
2022-10-04T20:56:33.340Z,10.80
2022-10-04T21:01:36.300Z,10.82
2022-10-04T21:06:55.978Z,13.07
2022-10-04T21:12:02.770Z,14.57
2022-10-04T21:17:30.011Z,11.98
2022-10-04T21:22:38.760Z,13.05
2022-10-04T21:27:45.559Z,12.73
2022-10-04T21:32:49.038Z,11.70
2022-10-04T21:37:54.139Z,10.98
2022-10-04T21:42:56.004Z,17.38
2022-10-04T21:47:58.689Z,8.88
2022-10-04T21:53:02.926Z,13.27
2022-10-04T21:58:07.076Z,11.63
2022-10-04T22:03:08.775Z,8.70
2022-10-04T22:08:13.017Z,13.27
2022-10-04T22:13:17.321Z,11.23
2022-10-04T22:18:22.081Z,11.85
2022-10-04T22:23:28.290Z,8.85
2022-10-04T22:28:32.820Z,13.05
2022-10-04T22:33:42.247Z,7.70
2022-10-04T22:39:08.848Z,10.63
2022-10-04T22:44:19.591Z,12.15
2022-10-04T22:49:35.391Z,14.20
2022-10-04T22:54:45.206Z,12.68
2022-10-04T22:59:52.965Z,11.32
2022-10-04T23:05:11.872Z,14.80
2022-10-04T23:10:18.572Z,11.77
2022-10-04T23:15:20.859Z,11.90
2022-10-04T23:20:25.005Z,12.35
2022-10-04T23:25:28.606Z,8.55
2022-10-04T23:30:32.644Z,11.95
2022-10-04T23:35:35.460Z,9.10
2022-10-04T23:40:39.408Z,9.55
2022-10-04T23:45:45.637Z,13.25
2022-10-04T23:50:47.868Z,12.20
2022-10-04T23:55:54.288Z,9.98
